Time;durP1;ratioP1;P1;durP2;ratioP2;P2;SDS_P1;SDS_P2;PMS_P1;PMS_P2;Temp;Humidity;BMP_temperature;BMP_pressure;BME280_temperature;BME280_humidity;BME280_pressure;Samples;Min_cycle;Max_cycle;Signal;HPM_P1;HPM_P2
2021/04/30 00:01:14;;;;;;;6.83;6.27;;;7.70;99.90;;;8.50;73.00;97365.78;5215726;28;20245;-60
2021/04/30 00:03:46;;;;;;;7.23;6.53;;;7.80;99.90;;;8.51;72.91;97367.53;5200315;28;20203;-62
2021/04/30 00:06:18;;;;;;;6.67;6.17;;;7.70;99.90;;;8.53;73.16;97367.63;5192876;28;20193;-60
2021/04/30 00:08:50;;;;;;;6.67;6.07;;;7.80;99.90;;;8.53;72.60;97373.59;5204787;28;20202;-62
2021/04/30 00:11:23;;;;;;;7.17;6.47;;;7.70;99.90;;;8.52;73.58;97383.69;5199096;28;20217;-62
2021/04/30 00:13:55;;;;;;;6.77;6.37;;;7.80;99.90;;;8.54;73.34;97377.91;5184856;28;20659;-61
2021/04/30 00:16:27;;;;;;;6.40;6.00;;;7.70;99.90;;;8.44;72.80;97378.19;5196789;28;20252;-60
2021/04/30 00:18:59;;;;;;;6.60;6.10;;;7.60;99.90;;;8.44;72.91;97379.81;5205086;28;20669;-62
2021/04/30 00:21:31;;;;;;;6.57;5.97;;;7.50;99.90;;;8.48;72.89;97375.00;5200224;28;20217;-61
2021/04/30 00:24:05;;;;;;;7.00;6.50;;;7.60;99.90;;;8.46;73.75;97383.34;5201524;28;20193;-62
2021/04/30 00:26:38;;;;;;;6.93;6.43;;;7.70;99.90;;;8.51;73.22;97375.19;5203340;28;20670;-62
2021/04/30 00:29:10;;;;;;;7.13;6.50;;;7.70;99.90;;;8.50;73.59;97375.97;5205119;28;20208;-61
2021/04/30 00:31:42;;;;;;;6.80;6.30;;;7.70;99.90;;;8.56;73.59;97371.22;5193605;28;20234;-62
2021/04/30 00:34:15;;;;;;;6.97;6.33;;;7.80;99.90;;;8.64;73.26;97375.88;5188004;28;20246;-62
2021/04/30 00:36:47;;;;;;;7.73;7.13;;;7.80;99.90;;;8.70;72.52;97376.22;5199195;28;20279;-59
2021/04/30 00:39:19;;;;;;;6.97;6.33;;;7.80;99.90;;;8.73;72.21;97373.84;5204628;28;20691;-61
2021/04/30 00:41:52;;;;;;;6.70;6.10;;;7.80;99.90;;;8.70;72.20;97377.13;5196380;28;20200;-61
2021/04/30 00:44:24;;;;;;;6.40;6.00;;;7.80;99.90;;;8.72;71.82;97369.53;5205234;28;20742;-62
2021/04/30 00:46:57;;;;;;;7.20;6.60;;;7.80;99.90;;;8.64;72.14;97381.88;5205049;28;20202;-60
2021/04/30 00:49:29;;;;;;;6.70;6.20;;;7.70;99.90;;;8.71;71.86;97377.97;5214090;28;20237;-61
2021/04/30 00:52:01;;;;;;;6.97;6.40;;;7.80;99.90;;;8.45;72.06;97379.94;5192236;28;20194;-62
2021/04/30 00:54:34;;;;;;;6.90;6.30;;;7.60;99.90;;;8.43;71.88;97367.88;5221144;28;20346;-61
2021/04/30 00:57:07;;;;;;;7.27;6.67;;;7.50;99.90;;;8.36;72.84;97384.47;5203404;28;20704;-62
2021/04/30 00:59:39;;;;;;;7.63;7.13;;;7.50;99.90;;;8.37;73.22;97381.13;5202752;28;20717;-61
2021/04/30 01:02:11;;;;;;;7.70;7.00;;;7.50;99.90;;;8.41;73.58;97387.28;5184222;28;20221;-62
2021/04/30 01:04:43;;;;;;;7.00;6.40;;;7.60;99.90;;;8.44;73.94;97380.72;5198401;28;20205;-61
2021/04/30 01:07:15;;;;;;;7.63;6.90;;;7.70;99.90;;;8.53;73.68;97381.25;5202639;28;20195;-61
2021/04/30 01:09:47;;;;;;;7.87;7.17;;;7.70;99.90;;;8.51;73.27;97381.94;5218457;28;20592;-62
2021/04/30 01:12:20;;;;;;;7.80;7.10;;;7.70;99.90;;;8.52;73.30;97379.47;5204302;28;20198;-61
2021/04/30 01:14:52;;;;;;;7.50;6.90;;;7.70;99.90;;;8.53;73.50;97377.81;5220815;28;20203;-61
2021/04/30 01:17:24;;;;;;;7.57;6.97;;;7.80;99.90;;;8.64;72.33;97391.16;5199556;28;20190;-62
2021/04/30 01:19:57;;;;;;;7.00;6.40;;;7.80;99.90;;;8.60;72.21;97391.78;5218844;28;20344;-62
2021/04/30 01:22:36;;;;;;;7.00;6.50;;;7.70;99.90;;;8.53;72.13;97388.88;5203733;28;20396;-61
2021/04/30 01:25:10;;;;;;;7.53;6.83;;;7.70;99.90;;;8.55;72.62;97396.59;5207428;28;20230;-62
2021/04/30 01:27:44;;;;;;;7.67;6.83;;;7.70;99.90;;;8.57;72.67;97395.03;5207393;28;20198;-62
2021/04/30 01:30:20;;;;;;;8.27;7.40;;;7.70;99.90;;;8.62;72.94;97397.84;5202861;28;20281;-62
2021/04/30 01:32:53;;;;;;;7.93;7.13;;;7.80;99.90;;;8.68;72.34;97399.06;5207294;28;20660;-60
2021/04/30 01:35:28;;;;;;;7.10;6.60;;;7.80;99.90;;;8.73;72.15;97384.06;5190487;28;20226;-61
2021/04/30 01:38:03;;;;;;;7.40;6.70;;;7.80;99.90;;;8.70;72.44;97381.31;5205778;28;20198;-61
2021/04/30 01:40:37;;;;;;;7.80;7.20;;;7.80;99.90;;;8.69;72.92;97392.28;5215347;28;20303;-62
2021/04/30 01:43:12;;;;;;;8.00;7.20;;;7.90;99.90;;;8.71;72.30;97398.38;5205976;28;20566;-62
2021/04/30 01:45:52;;;;;;;7.07;6.47;;;7.90;99.90;;;8.73;72.13;97392.56;5205870;28;20648;-61
2021/04/30 01:48:26;;;;;;;7.17;6.50;;;7.80;99.90;;;8.73;72.52;97396.78;5208000;28;20625;-61
2021/04/30 01:51:01;;;;;;;6.73;6.23;;;7.80;99.90;;;8.67;72.53;97398.97;5204185;28;20218;-61
2021/04/30 01:53:36;;;;;;;7.60;7.00;;;7.80;99.90;;;8.69;72.72;97399.94;5206238;28;20193;-62
2021/04/30 01:56:11;;;;;;;7.47;6.87;;;7.80;99.90;;;8.70;72.78;97405.13;5220089;28;20235;-61
2021/04/30 01:58:43;;;;;;;6.77;6.27;;;7.80;99.90;;;8.68;73.29;97408.38;5195975;28;20284;-60
2021/04/30 02:01:16;;;;;;;7.47;6.87;;;7.80;99.90;;;8.74;72.97;97408.72;5213336;28;20225;-62
2021/04/30 02:03:48;;;;;;;7.07;6.57;;;7.90;99.90;;;8.75;72.18;97410.47;5201497;28;20286;-61
2021/04/30 02:06:22;;;;;;;7.20;6.70;;;7.80;99.90;;;8.79;72.15;97413.28;5205156;28;20570;-62
2021/04/30 02:08:56;;;;;;;7.80;7.10;;;7.80;99.90;;;8.68;73.11;97408.38;5206831;28;20673;-61
2021/04/30 02:11:28;;;;;;;7.60;7.07;;;7.80;99.90;;;8.63;72.71;97409.78;5205841;28;20732;-59
2021/04/30 02:14:00;;;;;;;7.60;7.10;;;7.80;99.90;;;8.59;73.15;97415.50;5194646;28;20209;-60
2021/04/30 02:16:32;;;;;;;7.90;7.30;;;7.70;99.90;;;8.57;73.18;97411.19;5211565;28;20584;-60
2021/04/30 02:19:04;;;;;;;7.97;7.30;;;7.70;99.90;;;8.61;73.22;97404.59;5208196;28;20705;-61
2021/04/30 02:21:36;;;;;;;7.73;7.10;;;7.70;99.90;;;8.55;73.13;97392.38;5201776;28;20586;-60
2021/04/30 02:24:10;;;;;;;7.90;7.10;;;7.70;99.90;;;8.57;73.39;97385.72;5201290;28;20300;-61
2021/04/30 02:26:42;;;;;;;8.30;7.50;;;7.70;99.90;;;8.58;73.88;97386.59;5217751;28;20197;-61
2021/04/30 02:29:14;;;;;;;7.87;7.37;;;7.70;99.90;;;8.60;74.65;97396.88;5211818;28;20202;-60
2021/04/30 02:31:46;;;;;;;8.00;7.30;;;7.80;99.90;;;8.64;74.65;97396.25;5217534;28;20689;-62
2021/04/30 02:34:18;;;;;;;7.33;6.73;;;7.90;99.90;;;8.65;74.01;97395.47;5212285;28;20201;-61
2021/04/30 02:36:50;;;;;;;7.50;7.00;;;7.80;99.90;;;8.64;73.97;97396.25;5209475;28;20241;-62
2021/04/30 02:39:24;;;;;;;7.90;7.30;;;7.90;99.90;;;8.65;74.10;97395.47;5217682;28;20661;-62
2021/04/30 02:41:56;;;;;;;7.50;6.90;;;7.90;99.90;;;8.70;74.42;97394.03;5214562;28;20209;-61
2021/04/30 02:44:29;;;;;;;7.93;7.33;;;7.90;99.90;;;8.73;74.09;97406.97;5189499;28;20234;-60
2021/04/30 02:47:01;;;;;;;7.63;7.00;;;7.90;99.90;;;8.75;73.86;97411.34;5203060;28;20193;-61
2021/04/30 02:49:41;;;;;;;7.67;7.07;;;7.90;99.90;;;8.72;74.02;97412.84;5215083;28;20662;-62
2021/04/30 02:52:17;;;;;;;7.23;6.63;;;7.90;99.90;;;8.72;73.61;97406.06;5205421;28;20201;-60
2021/04/30 02:54:50;;;;;;;7.73;7.23;;;7.90;99.90;;;8.70;74.04;97411.88;5226939;28;20215;-61
2021/04/30 02:57:23;;;;;;;8.03;7.43;;;7.90;99.90;;;8.74;73.91;97408.72;5205994;28;20224;-61
2021/04/30 02:59:55;;;;;;;7.50;6.83;;;7.90;99.90;;;8.78;73.99;97410.66;5205442;28;20725;-62
2021/04/30 03:02:27;;;;;;;8.10;7.30;;;7.90;99.90;;;8.76;74.34;97418.22;5200977;28;20553;-60
2021/04/30 03:04:59;;;;;;;8.00;7.40;;;7.90;99.90;;;8.80;75.65;97414.16;5186815;28;20208;-61
2021/04/30 03:07:31;;;;;;;8.20;7.60;;;7.90;99.90;;;8.81;75.43;97405.72;5199669;28;21347;-61
2021/04/30 03:10:06;;;;;;;8.40;7.70;;;7.90;99.90;;;8.88;74.74;97402.75;5224797;28;20217;-62
2021/04/30 03:12:38;;;;;;;8.03;7.40;;;7.90;99.90;;;8.70;75.88;97399.13;5203544;28;20288;-61
2021/04/30 03:15:13;;;;;;;8.80;8.10;;;7.80;99.90;;;8.57;78.04;97388.25;5225372;28;20212;-61
2021/04/30 03:17:46;;;;;;;7.20;6.70;;;7.80;99.90;;;8.52;76.86;97386.25;5223893;28;20196;-61
2021/04/30 03:20:18;;;;;;;8.57;7.93;;;7.70;99.90;;;8.52;77.84;97384.56;5207431;28;20224;-61
2021/04/30 03:22:51;;;;;;;9.17;8.47;;;7.80;99.90;;;8.52;79.12;97381.16;5191137;28;20203;-61
2021/04/30 03:25:24;;;;;;;8.77;8.07;;;7.80;99.90;;;8.50;78.73;97383.63;5192329;28;20206;-58
2021/04/30 03:27:56;;;;;;;9.30;8.50;;;7.70;99.90;;;8.50;78.84;97386.16;5194027;28;20911;-62
2021/04/30 03:30:28;;;;;;;9.10;8.40;;;7.80;99.90;;;8.58;77.65;97381.50;5203667;28;20217;-62
2021/04/30 03:33:00;;;;;;;8.53;7.90;;;7.70;99.90;;;8.57;78.04;97383.16;5201045;28;20854;-62
2021/04/30 03:35:32;;;;;;;9.73;8.87;;;7.80;99.90;;;8.57;78.45;97383.16;5188203;28;20574;-62
2021/04/30 03:38:04;;;;;;;8.83;8.13;;;7.80;99.90;;;8.59;78.31;97388.34;5202418;28;20202;-61
2021/04/30 03:40:37;;;;;;;9.10;8.43;;;7.80;99.90;;;8.59;77.53;97392.59;5204303;28;20213;-61
2021/04/30 03:43:09;;;;;;;9.13;8.40;;;7.80;99.90;;;8.50;77.78;97393.81;5203833;28;20578;-61
2021/04/30 03:45:41;;;;;;;8.20;7.50;;;7.80;99.90;;;8.48;77.57;97389.41;5213354;28;20193;-62
2021/04/30 03:48:14;;;;;;;8.90;8.23;;;7.70;99.90;;;8.48;78.03;97379.22;5214579;28;20613;-62
2021/04/30 03:50:46;;;;;;;8.43;7.73;;;7.70;99.90;;;8.48;78.70;97390.28;5205264;28;20222;-62
2021/04/30 03:53:18;;;;;;;8.53;7.93;;;7.70;99.90;;;8.60;77.12;97397.75;5209224;28;20201;-62
2021/04/30 03:55:52;;;;;;;8.70;8.00;;;7.70;99.90;;;8.50;77.09;97396.34;5204679;28;20228;-62
2021/04/30 03:58:24;;;;;;;9.23;8.40;;;7.60;99.90;;;8.49;79.64;97392.03;5213103;28;20194;-61
2021/04/30 04:00:56;;;;;;;8.47;7.77;;;7.70;99.90;;;8.54;78.89;97398.28;5189805;28;20296;-61
2021/04/30 04:03:27;;;;;;;8.10;7.50;;;7.70;99.90;;;8.61;78.48;97388.44;5217543;28;20194;-61
2021/04/30 04:05:59;;;;;;;9.03;8.23;;;7.70;99.90;;;8.59;78.07;97383.25;5205452;28;20647;-62
2021/04/30 04:08:32;;;;;;;9.10;8.37;;;7.70;99.90;;;8.56;77.97;97383.97;5192801;28;20199;-62
2021/04/30 04:11:04;;;;;;;8.93;8.13;;;7.70;99.90;;;8.49;77.84;97371.66;5203431;28;20213;-62
2021/04/30 04:13:37;;;;;;;8.43;7.83;;;7.60;99.90;;;8.48;77.48;97380.09;5203585;28;20570;-59
2021/04/30 04:16:09;;;;;;;9.43;8.73;;;7.60;99.90;;;8.51;78.60;97374.31;5213335;28;20216;-61
2021/04/30 04:18:41;;;;;;;8.97;8.20;;;7.70;99.90;;;8.50;77.97;97375.09;5204570;28;20233;-61
2021/04/30 04:21:13;;;;;;;9.17;8.47;;;7.60;99.90;;;8.49;78.15;97383.53;5218995;28;20586;-61
2021/04/30 04:23:45;;;;;;;9.73;8.93;;;7.60;99.90;;;8.49;78.26;97381.84;5184892;28;20205;-61
2021/04/30 04:26:18;;;;;;;8.97;8.23;;;7.60;99.90;;;8.48;77.62;97380.09;5212174;28;20569;-61
2021/04/30 04:28:50;;;;;;;9.50;8.80;;;7.60;99.90;;;8.49;77.92;97388.63;5203579;28;20536;-61
2021/04/30 04:31:22;;;;;;;8.57;7.87;;;7.60;99.90;;;8.47;77.97;97393.63;5210852;28;20208;-60
2021/04/30 04:33:54;;;;;;;8.83;8.13;;;7.60;99.90;;;8.54;78.88;97393.19;5214630;28;20186;-58
2021/04/30 04:36:26;;;;;;;9.40;8.60;;;7.70;99.90;;;8.69;77.71;97405.03;5204651;28;20226;-61
2021/04/30 04:38:58;;;;;;;9.17;8.57;;;7.70;99.90;;;8.61;77.89;97408.81;5184374;28;20207;-59
2021/04/30 04:41:30;;;;;;;9.80;9.00;;;7.80;99.90;;;8.51;78.61;97415.94;5203602;28;20413;-61
2021/04/30 04:44:03;;;;;;;9.40;8.70;;;7.70;99.90;;;8.47;78.74;97406.38;5214343;28;20220;-60
2021/04/30 04:46:35;;;;;;;9.77;8.87;;;7.70;99.90;;;8.48;79.30;97410.66;5213919;28;20196;-60
2021/04/30 04:49:07;;;;;;;9.80;9.10;;;7.80;99.90;;;8.47;79.65;97406.38;5203682;28;20194;-61
2021/04/30 04:51:39;;;;;;;9.40;8.70;;;7.70;99.90;;;8.49;79.81;97406.44;5201399;28;20214;-60
2021/04/30 04:54:11;;;;;;;10.23;9.43;;;7.70;99.90;;;8.44;80.00;97402.75;5203924;28;20198;-59
2021/04/30 04:56:44;;;;;;;11.00;10.07;;;7.70;99.90;;;8.41;80.20;97403.44;5211456;28;20222;-61
2021/04/30 04:59:16;;;;;;;9.57;8.77;;;7.60;99.90;;;8.42;80.42;97407.75;5207780;28;20292;-63
2021/04/30 05:01:48;;;;;;;9.73;9.03;;;7.70;99.90;;;8.45;81.15;97413.03;5250383;22;20221;-62
2021/04/30 05:04:20;;;;;;;10.53;9.73;;;7.70;99.90;;;8.47;81.32;97403.81;5247326;28;20659;-62
2021/04/30 05:06:53;;;;;;;10.43;9.63;;;7.80;99.90;;;8.53;81.34;97418.59;5249704;28;20313;-62
2021/04/30 05:09:27;;;;;;;10.20;9.40;;;7.80;99.90;;;8.61;81.07;97419.00;5236001;28;20201;-63
2021/04/30 05:12:00;;;;;;;9.87;9.03;;;7.80;99.90;;;8.64;80.65;97431.91;5217034;28;20212;-63
2021/04/30 05:14:33;;;;;;;10.00;9.10;;;7.90;99.90;;;8.64;80.72;97431.91;5225852;28;20189;-64
2021/04/30 05:17:13;;;;;;;10.07;9.30;;;7.90;99.90;;;8.72;80.64;97430.69;5228234;28;20224;-64
2021/04/30 05:19:45;;;;;;;10.23;9.43;;;7.90;99.90;;;8.73;80.36;97443.53;5223765;28;20779;-63
2021/04/30 05:22:21;;;;;;;10.63;9.73;;;7.90;99.90;;;8.78;79.41;97441.22;5228663;28;20294;-64
2021/04/30 05:24:53;;;;;;;9.87;9.07;;;8.00;99.90;;;8.77;79.90;97435.25;5228462;28;20664;-64
2021/04/30 05:27:26;;;;;;;8.93;8.20;;;8.00;99.90;;;8.76;79.07;97437.72;5228557;28;20664;-66
2021/04/30 05:29:59;;;;;;;8.93;8.23;;;7.90;99.90;;;8.71;79.55;97436.56;5228016;28;20210;-64
2021/04/30 05:32:30;;;;;;;9.07;8.27;;;7.80;99.90;;;8.68;79.46;97429.63;5220334;28;20419;-66
2021/04/30 05:35:03;;;;;;;9.50;8.73;;;7.80;99.90;;;8.69;79.56;97422.88;5222572;28;20241;-64
2021/04/30 05:37:35;;;;;;;9.30;8.60;;;7.80;99.90;;;8.74;78.71;97427.44;5226715;28;20213;-63
2021/04/30 05:40:09;;;;;;;10.17;9.37;;;7.80;99.90;;;8.70;79.77;97422.06;5223859;28;20231;-63
2021/04/30 05:42:42;;;;;;;9.43;8.73;;;7.80;99.90;;;8.69;79.96;97420.31;5227682;28;20203;-63
2021/04/30 05:45:15;;;;;;;10.13;9.33;;;7.90;99.90;;;8.71;79.75;97411.97;5216200;28;20202;-63
2021/04/30 05:47:47;;;;;;;10.07;9.23;;;7.90;99.90;;;8.76;78.77;97412.25;5213509;28;20607;-64
2021/04/30 05:50:20;;;;;;;10.57;9.60;;;7.90;99.90;;;8.78;79.06;97410.66;5225221;28;20735;-66
2021/04/30 05:52:52;;;;;;;10.73;9.83;;;7.90;99.90;;;8.87;78.53;97411.19;5228028;28;20201;-63
2021/04/30 05:55:23;;;;;;;9.80;8.93;;;8.00;99.90;;;8.95;77.96;97415.00;5227920;28;20204;-64
2021/04/30 05:57:57;;;;;;;11.37;10.40;;;8.10;99.90;;;9.03;76.98;97413.78;5227837;28;20221;-64
2021/04/30 06:00:29;;;;;;;10.53;9.63;;;8.10;99.90;;;9.09;76.27;97417.47;5222175;28;20317;-66
2021/04/30 06:03:01;;;;;;;9.43;8.67;;;8.20;99.90;;;9.16;75.91;97427.22;5227881;28;20197;-64
2021/04/30 06:05:33;;;;;;;10.40;9.57;;;8.20;99.90;;;9.21;76.28;97418.13;5227227;28;20202;-66
2021/04/30 06:08:05;;;;;;;10.53;9.70;;;8.30;99.90;;;9.48;75.21;97414.53;5226657;28;20201;-66
2021/04/30 06:10:37;;;;;;;9.77;8.93;;;8.50;99.90;;;9.58;74.48;97399.72;5215092;28;20711;-64
2021/04/30 06:13:10;;;;;;;10.07;9.27;;;8.60;99.90;;;9.62;74.85;97396.56;5227065;28;20193;-64
2021/04/30 06:15:42;;;;;;;10.93;10.00;;;8.60;99.90;;;9.62;74.14;97396.56;5227405;28;20672;-66
2021/04/30 06:18:13;;;;;;;11.23;10.33;;;8.70;99.90;;;9.54;72.27;97392.72;5225626;28;20217;-64
2021/04/30 06:20:46;;;;;;;11.67;10.57;;;8.60;99.90;;;9.52;72.69;97387.50;5221119;28;20331;-63
2021/04/30 06:23:18;;;;;;;11.63;10.63;;;8.50;99.90;;;9.44;72.55;97382.03;5226646;28;20562;-63
2021/04/30 06:25:50;;;;;;;10.77;9.87;;;8.50;99.90;;;9.52;72.53;97373.88;5224806;28;20200;-63
2021/04/30 06:28:23;;;;;;;10.50;9.63;;;8.60;99.90;;;9.61;72.23;97369.25;5218620;28;20201;-65
2021/04/30 06:30:56;;;;;;;11.37;10.47;;;8.70;99.90;;;9.82;71.18;97374.63;5222693;28;20307;-66
2021/04/30 06:33:28;;;;;;;12.30;11.20;;;8.90;99.90;;;9.96;71.24;97367.66;5225386;28;20205;-65
2021/04/30 06:36:00;;;;;;;11.47;10.47;;;9.10;99.90;;;10.17;70.51;97362.78;5221715;28;20204;-65
2021/04/30 06:38:32;;;;;;;10.80;9.90;;;9.20;99.90;;;10.36;70.49;97356.16;5221740;28;21484;-65
2021/04/30 06:41:08;;;;;;;10.73;9.77;;;9.30;99.90;;;10.54;68.15;97355.31;5216612;28;20256;-65
2021/04/30 06:43:41;;;;;;;10.87;9.90;;;9.50;99.90;;;10.68;68.67;97364.53;5225613;28;20229;-65
2021/04/30 06:46:13;;;;;;;10.60;9.70;;;9.60;99.90;;;10.69;68.34;97363.72;5222463;28;20667;-66
2021/04/30 06:48:54;;;;;;;10.77;9.90;;;9.60;99.90;;;10.68;68.47;97363.66;5224486;28;20274;-66
2021/04/30 06:51:26;;;;;;;10.30;9.40;;;9.60;99.90;;;10.77;68.39;97372.63;5225157;28;20217;-66
2021/04/30 06:54:00;;;;;;;12.07;10.90;;;9.70;99.90;;;10.60;67.08;97355.59;5224244;28;20198;-66
2021/04/30 06:56:32;;;;;;;11.57;10.57;;;9.60;99.90;;;10.68;68.11;97361.97;5226212;28;20241;-66
2021/04/30 06:59:05;;;;;;;11.75;10.75;;;9.60;99.90;;;10.92;66.81;97349.47;5222390;28;20713;-66
2021/04/30 07:01:39;;;;;;;10.57;9.77;;;9.80;99.90;;;10.98;67.48;97343.75;5224241;28;20429;-66
2021/04/30 07:04:11;;;;;;;12.60;11.40;;;9.90;99.90;;;11.25;66.02;97352.72;5225368;28;20229;-66
2021/04/30 07:06:43;;;;;;;11.93;10.93;;;10.20;99.90;;;11.33;66.55;97359.88;5226155;28;20675;-66
2021/04/30 07:09:15;;;;;;;12.27;11.23;;;10.30;99.90;;;11.33;65.92;97377.78;5222640;28;20728;-66
2021/04/30 07:11:47;;;;;;;12.97;11.80;;;10.30;99.90;;;11.25;65.41;97365.53;5226416;28;20285;-66
2021/04/30 07:14:20;;;;;;;12.23;11.23;;;10.20;99.90;;;11.15;67.04;97367.56;5226340;28;20204;-66
2021/04/30 07:16:53;;;;;;;13.87;12.60;;;10.20;99.90;;;11.10;65.36;97363.91;5214797;28;20231;-66
2021/04/30 07:19:25;;;;;;;15.10;13.83;;;10.10;99.90;;;11.07;65.35;97362.09;5224817;28;20205;-66
2021/04/30 07:21:57;;;;;;;14.53;13.23;;;10.00;99.90;;;11.02;65.69;97355.91;5225347;28;20217;-66
2021/04/30 07:24:29;;;;;;;15.07;13.70;;;10.00;99.90;;;11.06;65.82;97360.34;5226460;28;20279;-65
2021/04/30 07:27:01;;;;;;;17.17;15.57;;;10.00;99.90;;;10.96;63.30;97360.72;5224071;28;20284;-65
2021/04/30 07:29:35;;;;;;;17.13;15.53;;;10.00;99.90;;;11.24;61.88;97358.63;5216388;28;20244;-65
2021/04/30 07:32:07;;;;;;;17.25;15.48;;;10.10;99.90;;;11.13;61.71;97366.63;5223454;28;20236;-66
2021/04/30 07:34:43;;;;;;;16.70;15.30;;;10.10;99.90;;;11.28;59.67;97375.03;5224727;28;20673;-66
2021/04/30 07:37:15;;;;;;;16.50;15.10;;;10.10;99.90;;;11.14;60.24;97376.94;5216869;28;20718;-66
2021/04/30 07:39:47;;;;;;;17.65;16.08;;;10.00;99.90;;;10.83;60.94;97380.59;5223587;28;20189;-66
2021/04/30 07:42:19;;;;;;;15.63;14.27;;;9.90;99.90;;;10.83;61.38;97370.34;5224465;28;20213;-65
2021/04/30 07:44:52;;;;;;;16.60;15.10;;;9.90;99.90;;;10.87;60.75;97361.16;5225892;28;20200;-65
2021/04/30 07:47:24;;;;;;;16.27;14.77;;;9.90;99.90;;;10.93;61.41;97340.09;5224986;28;20208;-66
2021/04/30 07:49:56;;;;;;;16.00;14.57;;;9.90;99.90;;;10.91;61.51;97334.06;5225805;28;20210;-66
2021/04/30 07:52:28;;;;;;;17.43;15.73;;;10.00;99.90;;;10.92;61.83;97326.44;5226213;28;20201;-67
2021/04/30 07:55:01;;;;;;;16.17;14.50;;;10.00;99.90;;;11.09;60.24;97322.13;5216622;28;20296;-65
2021/04/30 07:57:35;;;;;;;16.13;14.63;;;10.10;99.90;;;11.27;60.18;97325.53;5219876;28;20576;-66
2021/04/30 08:00:09;;;;;;;15.87;14.27;;;10.20;99.90;;;11.14;60.10;97325.78;5214079;28;20201;-66
2021/04/30 08:02:41;;;;;;;16.03;14.53;;;10.10;99.90;;;10.97;60.62;97324.13;5225816;28;20197;-66
2021/04/30 08:05:14;;;;;;;16.70;15.30;;;10.10;99.90;;;11.14;59.67;97330.03;5223392;28;20232;-66
2021/04/30 08:07:46;;;;;;;14.67;13.37;;;10.20;99.90;;;11.31;58.98;97329.13;5213287;28;20189;-66
2021/04/30 08:10:18;;;;;;;15.60;14.20;;;10.30;99.90;;;11.30;59.22;97336.69;5223255;28;20221;-66
2021/04/30 08:12:50;;;;;;;15.33;13.93;;;10.40;99.90;;;11.34;59.39;97334.38;5216571;28;20197;-66
2021/04/30 08:15:23;;;;;;;15.77;14.23;;;10.40;99.90;;;11.68;56.69;97331.63;5226918;28;20205;-66
2021/04/30 08:17:55;;;;;;;15.37;13.97;;;10.60;99.90;;;11.48;57.01;97335.88;5222600;28;20221;-66
2021/04/30 08:20:27;;;;;;;18.27;16.37;;;10.50;99.90;;;11.49;55.14;97347.84;5217943;28;20522;-65
2021/04/30 08:22:59;;;;;;;16.47;14.87;;;10.60;99.90;;;11.68;54.60;97348.69;5220786;28;20602;-64
2021/04/30 08:25:32;;;;;;;16.50;15.00;;;10.60;99.80;;;11.32;55.84;97335.09;5223645;28;20189;-64
2021/04/30 08:28:04;;;;;;;15.50;14.07;;;10.40;99.90;;;11.31;56.17;97348.72;5226535;28;20213;-65
2021/04/30 08:30:37;;;;;;;14.90;13.60;;;10.40;99.90;;;11.29;57.00;97358.84;5222140;28;20216;-65
2021/04/30 08:33:09;;;;;;;15.80;14.30;;;10.40;99.90;;;11.38;56.73;97360.97;5229119;28;20279;-64
2021/04/30 08:35:41;;;;;;;15.00;13.70;;;10.50;99.90;;;11.42;56.60;97366.31;5225188;28;20193;-66
2021/04/30 08:38:13;;;;;;;15.63;14.23;;;10.50;99.90;;;11.50;56.17;97364.06;5228436;28;20221;-66
2021/04/30 08:40:46;;;;;;;15.60;14.23;;;10.60;99.90;;;11.42;55.18;97368.84;5227130;28;20221;-66
2021/04/30 08:43:21;;;;;;;16.47;14.87;;;10.50;99.80;;;11.41;56.25;97366.22;5226517;28;20209;-65
2021/04/30 08:45:55;;;;;;;13.93;12.73;;;10.50;99.90;;;11.48;56.30;97358.03;5227804;28;20208;-65
2021/04/30 08:48:28;;;;;;;15.77;14.37;;;10.60;99.90;;;11.47;55.38;97361.38;5220890;28;20193;-66
2021/04/30 08:51:01;;;;;;;13.97;12.67;;;10.60;99.60;;;11.61;56.33;97359.44;5219296;28;20772;-66
2021/04/30 08:53:33;;;;;;;14.27;12.88;;;10.70;99.90;;;11.66;55.93;97342.59;5228197;28;20201;-66
2021/04/30 08:56:06;;;;;;;15.13;13.63;;;10.80;99.90;;;11.89;55.95;97341.09;5227200;28;20198;-65
2021/04/30 08:58:38;;;;;;;14.30;12.98;;;10.90;99.90;;;12.04;55.74;97339.19;5227185;28;20223;-66
2021/04/30 09:01:11;;;;;;;14.65;13.35;;;11.10;99.90;;;12.17;54.84;97333.78;5227201;28;20708;-66
2021/04/30 09:03:43;;;;;;;13.93;12.63;;;11.20;99.40;;;12.16;54.61;97320.88;5225169;28;20197;-66
2021/04/30 09:06:19;;;;;;;15.25;13.93;;;11.20;99.10;;;12.14;53.96;97309.72;5227092;28;20197;-64
2021/04/30 09:08:51;;;;;;;14.60;13.30;;;11.20;98.50;;;12.31;53.47;97295.03;5226260;28;20197;-65
2021/04/30 09:11:42;;;;;;;15.45;14.00;;;11.30;98.60;;;12.49;54.21;97292.34;5216344;28;20613;-65
2021/04/30 09:14:30;;;;;;;15.20;13.70;;;11.60;98.80;;;12.65;52.66;97293.81;5224970;28;20280;-66
2021/04/30 09:17:09;;;;;;;13.23;12.13;;;11.70;98.20;;;12.67;53.23;97292.19;5223437;28;20231;-65
2021/04/30 09:19:47;;;;;;;13.65;12.55;;;11.70;98.30;;;13.19;52.64;97289.97;5227517;28;20267;-62
2021/04/30 09:22:23;;;;;;;14.02;12.82;;;12.30;98.10;;;13.57;52.70;97302.50;5223829;28;20216;-62
2021/04/30 09:24:58;;;;;;;14.48;13.18;;;12.60;97.40;;;13.54;50.37;97289.56;5224377;28;20209;-62
2021/04/30 09:27:36;;;;;;;15.45;14.05;;;12.50;96.00;;;13.21;49.76;97278.03;5227421;28;20201;-63
2021/04/30 09:30:25;;;;;;;11.63;10.70;;;12.30;95.80;;;13.46;50.65;97287.56;5221434;28;20201;-65
2021/04/30 09:33:10;;;;;;;14.02;12.90;;;12.40;96.30;;;13.60;50.19;97280.38;5228472;28;20197;-62
2021/04/30 09:35:44;;;;;;;14.63;13.32;;;12.70;96.10;;;13.43;50.51;97279.75;5226162;28;20912;-63
2021/04/30 09:38:24;;;;;;;14.10;12.85;;;12.50;95.50;;;13.13;50.11;97291.41;5227620;28;20213;-62
2021/04/30 09:41:11;;;;;;;14.68;13.38;;;12.20;95.90;;;13.22;51.40;97297.78;5224864;28;20209;-63
2021/04/30 09:43:49;;;;;;;15.73;14.32;;;12.10;96.50;;;13.22;51.04;97314.84;5217699;28;20196;-63
2021/04/30 09:46:24;;;;;;;16.05;14.55;;;12.30;95.90;;;13.20;50.54;97316.50;5228023;28;20196;-63
2021/04/30 09:49:03;;;;;;;14.38;13.07;;;12.30;96.10;;;13.24;52.30;97320.91;5219847;28;20193;-63
2021/04/30 09:51:44;;;;;;;14.25;13.05;;;12.30;96.80;;;13.25;50.73;97322.69;5215678;28;20362;-63
2021/04/30 09:54:20;;;;;;;14.80;13.57;;;12.30;96.40;;;13.16;51.21;97323.22;5227581;28;20687;-63
2021/04/30 09:57:06;;;;;;;14.57;13.23;;;12.20;96.20;;;13.11;51.52;97316.16;5227106;28;20232;-63
2021/04/30 09:59:41;;;;;;;15.35;14.00;;;12.20;96.70;;;13.03;51.12;97316.72;5224338;28;20680;-63
2021/04/30 10:02:17;;;;;;;14.25;13.05;;;12.10;96.00;;;13.04;51.78;97318.47;5217885;28;20270;-63
2021/04/30 10:04:52;;;;;;;14.10;12.80;;;12.10;96.60;;;13.17;51.62;97316.38;5227824;28;20687;-63
2021/04/30 10:07:30;;;;;;;13.75;12.48;;;12.20;96.70;;;13.17;51.73;97298.41;5224654;28;20203;-64
2021/04/30 10:10:09;;;;;;;14.02;12.82;;;12.20;96.00;;;13.20;51.85;97308.81;5223277;28;20198;-63
2021/04/30 10:12:42;;;;;;;11.73;10.73;;;12.30;96.30;;;13.32;50.87;97298.16;5221085;28;20193;-64
2021/04/30 10:15:19;;;;;;;14.10;12.85;;;12.30;96.10;;;13.40;51.55;97300.19;5220265;28;20223;-63
2021/04/30 10:17:57;;;;;;;13.63;12.43;;;12.40;96.00;;;13.41;50.78;97299.34;5210354;28;20252;-63
2021/04/30 10:20:30;;;;;;;13.40;12.30;;;12.40;95.80;;;13.47;49.68;97294.44;5219889;28;20217;-64
2021/04/30 10:23:06;;;;;;;13.50;12.38;;;12.40;95.50;;;13.36;50.56;97282.91;5226520;28;20209;-63
2021/04/30 10:25:39;;;;;;;12.43;11.32;;;12.40;95.80;;;13.48;51.09;97296.22;5225010;28;20655;-64
2021/04/30 10:28:15;;;;;;;12.63;11.48;;;12.50;95.60;;;13.50;49.96;97284.28;5207939;28;20232;-63
2021/04/30 10:30:55;;;;;;;13.15;12.07;;;12.50;95.20;;;13.44;49.70;97263.53;5216790;28;20217;-63
2021/04/30 10:33:32;;;;;;;14.18;12.98;;;12.50;95.10;;;13.54;49.07;97266.44;5223509;28;20202;-63
2021/04/30 10:36:14;;;;;;;13.88;12.57;;;12.50;95.00;;;13.63;49.87;97259.94;5224062;28;20238;-63
2021/04/30 10:38:50;;;;;;;14.23;12.82;;;12.60;95.00;;;13.78;50.30;97259.59;5208607;28;20220;-65
2021/04/30 10:41:28;;;;;;;13.93;12.70;;;12.80;94.90;;;13.77;50.59;97273.25;5216906;28;20331;-63
2021/04/30 10:44:13;;;;;;;14.07;12.85;;;12.80;95.40;;;13.81;49.37;97279.38;5219666;28;20657;-63
2021/04/30 10:46:48;;;;;;;14.98;13.68;;;12.70;95.00;;;13.96;48.80;97280.78;5206388;28;20567;-63
2021/04/30 10:49:22;;;;;;;15.52;14.10;;;12.80;95.20;;;13.87;50.20;97288.16;5213105;28;20209;-63